createdAt,value
2018-12-30T00:00:48.184Z,97.10
2018-12-30T00:03:17.989Z,97.00
2018-12-30T00:05:48.119Z,97.10
2018-12-30T00:08:18.228Z,97.40
2018-12-30T00:10:49.052Z,97.30
2018-12-30T00:13:18.960Z,97.70
2018-12-30T00:15:48.791Z,98.10
2018-12-30T00:18:18.734Z,97.90
2018-12-30T00:20:48.570Z,97.50
2018-12-30T00:23:18.883Z,97.50
2018-12-30T00:25:48.721Z,97.40
2018-12-30T00:28:18.625Z,97.50
2018-12-30T00:30:48.455Z,97.70
2018-12-30T00:33:18.365Z,97.70
2018-12-30T00:35:48.491Z,97.60
2018-12-30T00:38:18.404Z,97.60
2018-12-30T00:40:48.318Z,97.80
2018-12-30T00:43:18.151Z,98.10
2018-12-30T00:45:48.062Z,98.10
2018-12-30T00:48:18.042Z,98.30
2018-12-30T00:50:47.935Z,98.40
2018-12-30T00:53:17.786Z,98.50
2018-12-30T00:55:47.696Z,98.60
2018-12-30T00:58:17.602Z,98.70
2018-12-30T01:00:47.418Z,98.80
2018-12-30T01:03:17.313Z,99.10
2018-12-30T01:05:47.156Z,99.20
2018-12-30T01:08:16.992Z,99.30
2018-12-30T01:10:46.890Z,99.20
2018-12-30T01:13:16.643Z,99.30
2018-12-30T01:15:46.555Z,99.30
2018-12-30T01:18:16.459Z,99.20
2018-12-30T01:20:46.367Z,99.10
2018-12-30T01:23:16.183Z,99.20
2018-12-30T01:25:46.024Z,99.20
2018-12-30T01:28:15.920Z,99.50
2018-12-30T01:30:45.828Z,99.40
2018-12-30T01:33:15.738Z,99.50
2018-12-30T01:35:45.570Z,99.40
2018-12-30T01:38:15.483Z,99.60
2018-12-30T01:40:45.320Z,99.50
2018-12-30T01:43:15.237Z,99.50
2018-12-30T01:45:45.071Z,99.70
2018-12-30T01:48:14.984Z,99.80
2018-12-30T01:50:44.820Z,99.70
2018-12-30T01:53:14.760Z,99.70
2018-12-30T01:55:44.595Z,99.40
2018-12-30T01:58:14.529Z,99.40
2018-12-30T02:00:44.441Z,99.80
2018-12-30T02:03:14.344Z,99.80
2018-12-30T02:05:44.179Z,99.80
2018-12-30T02:08:13.997Z,99.90
2018-12-30T02:10:43.831Z,99.90
2018-12-30T02:13:13.644Z,99.90
2018-12-30T02:15:44.551Z,99.80
2018-12-30T02:18:14.386Z,99.70
2018-12-30T02:20:44.216Z,99.90
2018-12-30T02:23:14.148Z,99.80
2018-12-30T02:25:44.087Z,99.90
2018-12-30T02:28:14.604Z,99.90
2018-12-30T02:30:44.564Z,99.90
2018-12-30T02:33:14.474Z,99.60
2018-12-30T02:35:44.333Z,99.80
2018-12-30T02:38:14.227Z,99.90
2018-12-30T02:40:44.072Z,99.90
2018-12-30T02:43:13.967Z,99.80
2018-12-30T02:45:43.713Z,99.90
2018-12-30T02:48:13.530Z,99.90
2018-12-30T02:50:43.776Z,99.90
2018-12-30T02:53:13.679Z,99.90
2018-12-30T02:55:44.611Z,99.80
2018-12-30T02:58:14.463Z,99.90
2018-12-30T03:00:44.399Z,99.90
2018-12-30T03:03:14.203Z,99.90
2018-12-30T03:05:44.110Z,99.90
2018-12-30T03:08:13.953Z,99.90
2018-12-30T03:10:43.861Z,99.90
2018-12-30T03:13:14.209Z,99.90
2018-12-30T03:15:44.015Z,99.90
2018-12-30T03:18:13.764Z,99.90
2018-12-30T03:20:43.667Z,99.90
2018-12-30T03:23:13.527Z,99.90
2018-12-30T03:25:43.348Z,99.90
2018-12-30T03:28:13.084Z,99.90
2018-12-30T03:30:42.917Z,99.70
2018-12-30T03:33:12.649Z,99.70
2018-12-30T03:35:42.456Z,99.60
2018-12-30T03:38:12.369Z,99.60
2018-12-30T03:40:42.177Z,99.70
2018-12-30T03:43:12.012Z,99.80
2018-12-30T03:45:41.823Z,99.90
2018-12-30T03:48:11.556Z,99.90
2018-12-30T03:50:41.380Z,99.90
2018-12-30T03:53:12.130Z,99.90
2018-12-30T03:55:41.947Z,99.80
2018-12-30T03:58:11.693Z,99.80
2018-12-30T04:00:41.524Z,99.70
2018-12-30T04:03:11.338Z,99.50
2018-12-30T04:05:41.073Z,99.60
2018-12-30T04:08:10.912Z,99.70
2018-12-30T04:10:40.653Z,99.40
2018-12-30T04:13:10.464Z,99.40
2018-12-30T04:15:41.197Z,99.20
2018-12-30T04:18:11.008Z,98.90
2018-12-30T04:20:40.784Z,98.90
2018-12-30T04:23:10.578Z,98.70
2018-12-30T04:25:40.318Z,98.70
2018-12-30T04:28:10.133Z,98.60
2018-12-30T04:30:39.955Z,98.60
2018-12-30T04:33:09.760Z,98.80
2018-12-30T04:35:39.498Z,98.70
2018-12-30T04:38:09.350Z,98.90
2018-12-30T04:40:39.083Z,99.00
2018-12-30T04:43:08.890Z,99.00
2018-12-30T04:45:38.626Z,99.00
2018-12-30T04:48:08.432Z,99.10
2018-12-30T04:50:39.856Z,98.90
2018-12-30T04:53:09.668Z,99.00
2018-12-30T04:55:39.456Z,98.90
2018-12-30T04:58:09.195Z,98.90
2018-12-30T05:00:39.000Z,98.50
2018-12-30T05:03:08.800Z,98.50
2018-12-30T05:05:38.615Z,98.50
2018-12-30T05:08:08.388Z,98.50
2018-12-30T05:10:38.216Z,98.70
2018-12-30T05:13:08.015Z,98.80
2018-12-30T05:15:37.751Z,98.90
2018-12-30T05:18:07.568Z,98.90
2018-12-30T05:20:37.377Z,98.70
2018-12-30T05:23:07.143Z,99.00
2018-12-30T05:25:37.015Z,99.10
2018-12-30T05:28:06.794Z,98.50
2018-12-30T05:30:36.597Z,98.30
2018-12-30T05:33:06.409Z,97.90
2018-12-30T05:35:36.145Z,97.60
2018-12-30T05:38:05.958Z,97.70
2018-12-30T05:40:35.706Z,97.90
2018-12-30T05:43:05.552Z,98.00
2018-12-30T05:45:35.397Z,97.90
2018-12-30T05:48:05.290Z,97.60
2018-12-30T05:50:35.029Z,97.60
2018-12-30T05:53:04.834Z,97.60
2018-12-30T05:55:34.645Z,97.60
2018-12-30T05:58:04.381Z,97.90
2018-12-30T06:00:34.187Z,97.90
2018-12-30T06:03:03.919Z,97.90
2018-12-30T06:05:33.723Z,98.00
2018-12-30T06:08:03.458Z,98.20
2018-12-30T06:10:33.275Z,98.20
2018-12-30T06:13:03.007Z,98.50
2018-12-30T06:15:32.858Z,98.40
2018-12-30T06:18:02.596Z,98.40
2018-12-30T06:20:32.408Z,98.30
2018-12-30T06:23:02.158Z,98.40
2018-12-30T06:25:31.976Z,98.40
2018-12-30T06:28:01.779Z,98.30
2018-12-30T06:30:31.519Z,98.10
2018-12-30T06:33:01.332Z,98.20
2018-12-30T06:35:31.067Z,98.20
2018-12-30T06:38:00.879Z,98.00
2018-12-30T06:40:30.615Z,97.90
2018-12-30T06:43:00.423Z,97.70
2018-12-30T06:45:30.160Z,97.80
2018-12-30T06:48:00.031Z,98.00
2018-12-30T06:50:29.763Z,98.30
2018-12-30T06:52:59.583Z,98.50
2018-12-30T06:55:29.320Z,98.90
2018-12-30T06:57:59.123Z,99.00
2018-12-30T07:00:30.149Z,99.30
2018-12-30T07:02:59.958Z,99.40
2018-12-30T07:05:29.765Z,99.50
2018-12-30T07:07:59.500Z,99.60
2018-12-30T07:10:29.309Z,99.60
2018-12-30T07:12:59.120Z,99.50
2018-12-30T07:15:28.860Z,99.30
2018-12-30T07:17:58.699Z,99.00
2018-12-30T07:20:28.533Z,99.10
2018-12-30T07:23:05.594Z,98.90
2018-12-30T07:25:29.811Z,98.30
2018-12-30T07:27:59.637Z,98.00
2018-12-30T07:30:29.452Z,98.10
2018-12-30T07:32:59.186Z,97.90
2018-12-30T07:35:29.002Z,97.90
2018-12-30T07:37:58.777Z,98.10
2018-12-30T07:40:28.583Z,97.90
2018-12-30T07:42:58.310Z,97.80
2018-12-30T07:45:28.119Z,97.60
2018-12-30T07:47:57.853Z,97.60
2018-12-30T07:50:27.692Z,97.70
2018-12-30T07:52:57.506Z,97.50
2018-12-30T07:55:27.315Z,97.90
2018-12-30T07:57:57.055Z,98.00
2018-12-30T08:00:26.867Z,97.90
2018-12-30T08:02:56.598Z,97.90
2018-12-30T08:05:26.549Z,97.80
2018-12-30T08:07:56.356Z,97.70
2018-12-30T08:10:26.204Z,97.60
2018-12-30T08:12:56.038Z,97.30
2018-12-30T08:15:25.838Z,97.00
2018-12-30T08:17:55.645Z,96.90
2018-12-30T08:20:25.375Z,96.80
2018-12-30T08:22:55.204Z,96.90
2018-12-30T08:25:24.990Z,97.00
2018-12-30T08:27:54.846Z,96.60
2018-12-30T08:30:24.579Z,96.80
2018-12-30T08:32:54.383Z,96.60
2018-12-30T08:35:24.190Z,96.80
2018-12-30T08:37:53.922Z,96.90
2018-12-30T08:40:23.730Z,96.90
2018-12-30T08:42:53.508Z,96.80
2018-12-30T08:45:23.310Z,97.00
2018-12-30T08:47:53.042Z,96.90
2018-12-30T08:50:22.852Z,96.60
2018-12-30T08:52:52.582Z,96.20
2018-12-30T08:55:23.791Z,96.70
2018-12-30T08:57:53.523Z,96.30
2018-12-30T09:00:23.407Z,96.20
2018-12-30T09:02:53.146Z,96.30
2018-12-30T09:05:25.739Z,96.50
2018-12-30T09:07:55.743Z,96.20
2018-12-30T09:10:25.652Z,96.40
2018-12-30T09:12:55.432Z,96.40
2018-12-30T09:15:25.339Z,96.10
2018-12-30T09:17:55.155Z,95.80
2018-12-30T09:20:24.896Z,96.10
2018-12-30T09:22:54.704Z,96.10
2018-12-30T09:25:25.445Z,95.80
2018-12-30T09:27:55.515Z,96.10
2018-12-30T09:30:25.988Z,96.10
2018-12-30T09:32:56.971Z,96.00
2018-12-30T09:35:28.154Z,96.20
2018-12-30T09:37:58.294Z,96.30
2018-12-30T09:40:28.016Z,96.50
2018-12-30T09:42:57.833Z,96.20
2018-12-30T09:45:28.312Z,96.20
2018-12-30T09:47:58.217Z,96.40
2018-12-30T09:50:28.137Z,95.90
2018-12-30T09:52:57.949Z,95.70
2018-12-30T09:55:29.046Z,95.70
2018-12-30T09:57:58.766Z,95.40
2018-12-30T10:00:28.613Z,95.90
2018-12-30T10:02:58.368Z,95.50
2018-12-30T10:05:28.612Z,95.60
2018-12-30T10:07:58.572Z,95.70
2018-12-30T10:10:28.361Z,95.70
2018-12-30T10:12:58.163Z,95.50
2018-12-30T10:15:28.284Z,95.10
2018-12-30T10:17:58.640Z,95.30
2018-12-30T10:20:28.520Z,95.30
2018-12-30T10:22:58.904Z,95.20
2018-12-30T10:25:28.745Z,95.40
2018-12-30T10:27:58.643Z,95.40
2018-12-30T10:30:28.373Z,95.40
2018-12-30T10:32:58.195Z,95.30
2018-12-30T10:35:28.804Z,95.10
2018-12-30T10:37:59.783Z,95.30
2018-12-30T10:40:29.766Z,94.90
2018-12-30T10:42:59.610Z,95.10
2018-12-30T10:45:31.455Z,94.80
2018-12-30T10:48:01.633Z,94.70
2018-12-30T10:50:32.774Z,94.80
2018-12-30T10:53:02.504Z,95.10
2018-12-30T10:55:34.814Z,95.10
2018-12-30T10:58:04.608Z,95.00
2018-12-30T11:00:34.517Z,95.10
2018-12-30T11:03:04.306Z,94.80
2018-12-30T11:05:34.360Z,95.10
2018-12-30T11:08:04.159Z,95.40
2018-12-30T11:10:33.934Z,95.30
2018-12-30T11:13:03.733Z,95.60
2018-12-30T11:15:36.281Z,95.20
2018-12-30T11:18:06.805Z,94.90
2018-12-30T11:20:36.740Z,95.30
2018-12-30T11:23:06.547Z,94.80
2018-12-30T11:25:36.342Z,95.20
2018-12-30T11:28:06.161Z,95.00
2018-12-30T11:30:35.906Z,94.90
2018-12-30T11:33:05.711Z,95.10
2018-12-30T11:35:35.507Z,94.40
2018-12-30T11:38:05.317Z,93.70
2018-12-30T11:40:35.049Z,93.50
2018-12-30T11:43:04.882Z,93.10
2018-12-30T11:45:34.692Z,92.40
2018-12-30T11:48:04.434Z,92.10
2018-12-30T11:50:34.231Z,92.60
2018-12-30T11:53:04.022Z,91.70
2018-12-30T11:55:33.772Z,91.80
2018-12-30T11:58:04.974Z,91.60
2018-12-30T12:00:34.692Z,92.40
2018-12-30T12:03:04.477Z,92.40
2018-12-30T12:05:34.273Z,92.80
2018-12-30T12:08:04.085Z,93.20
2018-12-30T12:10:33.821Z,92.80
2018-12-30T12:13:03.628Z,93.60
2018-12-30T12:15:33.377Z,93.00
2018-12-30T12:18:03.161Z,93.40
2018-12-30T12:20:32.960Z,92.40
2018-12-30T12:23:03.736Z,92.70
2018-12-30T12:25:34.353Z,92.10
2018-12-30T12:28:05.654Z,92.20
2018-12-30T12:30:35.437Z,92.00
2018-12-30T12:33:06.239Z,91.90
2018-12-30T12:35:35.972Z,91.40
2018-12-30T12:38:05.764Z,91.30
2018-12-30T12:40:35.562Z,91.90
2018-12-30T12:43:05.360Z,91.60
2018-12-30T12:45:35.092Z,91.40
2018-12-30T12:48:04.880Z,91.80
2018-12-30T12:50:34.607Z,91.90
2018-12-30T12:53:04.435Z,91.70
2018-12-30T12:55:34.229Z,92.00
2018-12-30T12:58:04.005Z,91.30
2018-12-30T13:00:33.802Z,91.60
2018-12-30T13:03:03.525Z,93.40
2018-12-30T13:05:34.335Z,94.50
2018-12-30T13:08:04.130Z,94.70
2018-12-30T13:10:33.885Z,95.00
2018-12-30T13:13:03.690Z,95.60
2018-12-30T13:15:33.425Z,96.00
2018-12-30T13:18:03.227Z,96.30
2018-12-30T13:20:33.026Z,96.60
2018-12-30T13:23:02.761Z,97.00
2018-12-30T13:25:32.611Z,96.90
2018-12-30T13:28:02.462Z,97.10
2018-12-30T13:30:32.258Z,97.20
2018-12-30T13:33:01.994Z,96.50
2018-12-30T13:35:31.793Z,96.50
2018-12-30T13:38:01.518Z,96.40
2018-12-30T13:40:31.314Z,96.90
2018-12-30T13:43:01.130Z,96.80
2018-12-30T13:45:32.267Z,97.20
2018-12-30T13:48:02.344Z,96.80
2018-12-30T13:50:32.143Z,97.00
2018-12-30T13:53:01.875Z,96.60
2018-12-30T13:55:31.708Z,96.70
2018-12-30T13:58:01.442Z,96.90
2018-12-30T14:00:31.237Z,96.90
2018-12-30T14:03:00.969Z,97.00
2018-12-30T14:05:30.761Z,97.00
2018-12-30T14:08:00.590Z,97.20
2018-12-30T14:10:30.315Z,97.40
2018-12-30T14:13:00.142Z,97.40
2018-12-30T14:15:29.885Z,97.40
2018-12-30T14:17:59.705Z,97.30
2018-12-30T14:20:29.425Z,97.40
2018-12-30T14:22:59.249Z,97.50
2018-12-30T14:25:28.975Z,97.20
2018-12-30T14:27:58.881Z,97.40
2018-12-30T14:30:28.813Z,97.30
2018-12-30T14:32:58.635Z,97.50
2018-12-30T14:35:28.363Z,97.90
2018-12-30T14:37:58.157Z,97.50
2018-12-30T14:40:27.957Z,97.70
2018-12-30T14:42:57.725Z,97.70
2018-12-30T14:45:27.521Z,97.60
2018-12-30T14:47:57.342Z,97.50
2018-12-30T14:50:27.068Z,97.80
2018-12-30T14:52:56.857Z,97.50
2018-12-30T14:55:26.585Z,97.70
2018-12-30T14:57:56.368Z,97.40
2018-12-30T15:00:26.208Z,97.70
2018-12-30T15:02:55.938Z,97.60
2018-12-30T15:05:25.766Z,97.90
2018-12-30T15:07:55.498Z,98.10
2018-12-30T15:10:25.406Z,98.30
2018-12-30T15:12:55.138Z,98.50
2018-12-30T15:15:24.945Z,98.30
2018-12-30T15:17:54.752Z,98.10
2018-12-30T15:20:24.478Z,98.30
2018-12-30T15:22:54.281Z,98.30
2018-12-30T15:25:24.073Z,98.50
2018-12-30T15:27:53.897Z,98.50
2018-12-30T15:30:23.705Z,98.60
2018-12-30T15:32:54.469Z,98.70
2018-12-30T15:35:24.264Z,98.60
2018-12-30T15:37:54.061Z,98.60
2018-12-30T15:40:23.812Z,98.70
2018-12-30T15:42:53.613Z,98.90
2018-12-30T15:45:23.435Z,98.90
2018-12-30T15:47:53.157Z,99.00
2018-12-30T15:50:22.951Z,99.10
2018-12-30T15:52:52.758Z,99.20
2018-12-30T15:55:22.484Z,99.30
2018-12-30T15:57:52.289Z,99.30
2018-12-30T16:00:22.033Z,99.20
2018-12-30T16:02:51.834Z,99.20
2018-12-30T16:05:21.674Z,99.10
2018-12-30T16:07:51.424Z,99.20
2018-12-30T16:10:21.230Z,99.30
2018-12-30T16:12:51.026Z,99.10
2018-12-30T16:15:20.761Z,99.30
2018-12-30T16:17:50.569Z,99.30
2018-12-30T16:20:20.308Z,98.80
2018-12-30T16:22:50.042Z,98.80
2018-12-30T16:25:26.982Z,99.00
2018-12-30T16:27:51.285Z,99.10
2018-12-30T16:30:21.014Z,99.40
2018-12-30T16:32:50.814Z,99.40
2018-12-30T16:35:20.650Z,99.30
2018-12-30T16:37:50.470Z,99.50
2018-12-30T16:40:21.946Z,99.40
2018-12-30T16:42:51.677Z,99.70
2018-12-30T16:45:21.504Z,99.90
2018-12-30T16:47:51.220Z,99.80
2018-12-30T16:50:21.056Z,99.90
2018-12-30T16:52:50.776Z,99.90
2018-12-30T16:55:20.501Z,99.90
2018-12-30T16:57:50.343Z,99.90
2018-12-30T17:00:20.169Z,99.90
2018-12-30T17:02:49.898Z,99.90
2018-12-30T17:05:19.698Z,99.90
2018-12-30T17:07:49.427Z,99.90
2018-12-30T17:10:19.233Z,99.90
2018-12-30T17:12:49.025Z,99.90
2018-12-30T17:15:18.755Z,99.90
2018-12-30T17:17:48.629Z,99.90
2018-12-30T17:20:18.358Z,99.90
2018-12-30T17:22:48.169Z,99.90
2018-12-30T17:25:17.901Z,99.90
2018-12-30T17:27:47.708Z,99.90
2018-12-30T17:30:17.435Z,99.90
2018-12-30T17:32:47.261Z,99.90
2018-12-30T17:35:17.093Z,99.90
2018-12-30T17:37:46.822Z,99.90
2018-12-30T17:40:16.554Z,99.90
2018-12-30T17:42:46.366Z,99.90
2018-12-30T17:45:16.098Z,99.90
2018-12-30T17:47:45.897Z,99.90
2018-12-30T17:50:15.741Z,99.90
2018-12-30T17:52:45.517Z,99.90
2018-12-30T17:55:15.332Z,99.90
2018-12-30T17:57:45.060Z,99.90
2018-12-30T18:00:14.873Z,99.90
2018-12-30T18:02:44.672Z,99.90
2018-12-30T18:05:14.401Z,99.90
2018-12-30T18:07:44.207Z,99.90
2018-12-30T18:10:13.934Z,99.90
2018-12-30T18:12:43.720Z,99.90
2018-12-30T18:15:13.509Z,99.90
2018-12-30T18:17:43.425Z,99.90
2018-12-30T18:20:13.153Z,99.90
2018-12-30T18:22:42.990Z,99.90
2018-12-30T18:25:12.815Z,99.90
2018-12-30T18:27:42.543Z,99.90
2018-12-30T18:30:12.353Z,99.90
2018-12-30T18:32:42.079Z,99.90
2018-12-30T18:35:11.879Z,99.90
2018-12-30T18:37:41.599Z,99.90
2018-12-30T18:40:12.392Z,99.90
2018-12-30T18:42:42.130Z,99.90
2018-12-30T18:45:11.932Z,99.90
2018-12-30T18:47:41.734Z,99.90
2018-12-30T18:50:11.544Z,99.90
2018-12-30T18:52:41.268Z,99.90
2018-12-30T18:55:11.106Z,99.90
2018-12-30T18:57:40.853Z,99.90
2018-12-30T19:00:11.373Z,99.90
2018-12-30T19:02:41.109Z,99.90
2018-12-30T19:05:10.926Z,99.90
2018-12-30T19:07:40.655Z,99.90
2018-12-30T19:10:10.456Z,99.90
2018-12-30T19:12:40.270Z,99.90
2018-12-30T19:15:10.044Z,99.90
2018-12-30T19:17:39.834Z,99.90
2018-12-30T19:20:09.636Z,99.90
2018-12-30T19:22:39.475Z,99.90
2018-12-30T19:25:09.224Z,99.90
2018-12-30T19:27:39.074Z,99.90
2018-12-30T19:30:10.802Z,99.90
2018-12-30T19:32:40.628Z,99.90
2018-12-30T19:35:10.358Z,99.90
2018-12-30T19:37:40.175Z,99.90
2018-12-30T19:40:11.294Z,99.90
2018-12-30T19:42:41.026Z,99.90
2018-12-30T19:45:10.851Z,99.90
2018-12-30T19:47:40.583Z,99.90
2018-12-30T19:50:10.401Z,99.90
2018-12-30T19:52:40.133Z,99.90
2018-12-30T19:55:09.922Z,99.90
2018-12-30T19:57:39.659Z,99.90
2018-12-30T20:00:11.182Z,99.90
2018-12-30T20:02:40.985Z,99.90
2018-12-30T20:05:10.711Z,99.90
2018-12-30T20:07:40.513Z,99.90
2018-12-30T20:10:10.238Z,99.90
2018-12-30T20:12:40.034Z,99.90
2018-12-30T20:15:09.838Z,99.90
2018-12-30T20:17:39.594Z,99.90
2018-12-30T20:20:09.398Z,99.90
2018-12-30T20:22:39.231Z,99.90
2018-12-30T20:25:09.034Z,99.90
2018-12-30T20:27:38.764Z,99.90
2018-12-30T20:30:09.586Z,99.90
2018-12-30T20:32:39.312Z,99.90
2018-12-30T20:35:09.125Z,99.90
2018-12-30T20:37:38.922Z,99.90
2018-12-30T20:40:08.718Z,99.90
2018-12-30T20:42:38.534Z,99.90
2018-12-30T20:45:08.348Z,99.90
2018-12-30T20:47:38.225Z,99.90
2018-12-30T20:50:07.961Z,99.90
2018-12-30T20:52:37.761Z,99.90
2018-12-30T20:55:07.495Z,99.90
2018-12-30T20:57:37.309Z,99.90
2018-12-30T21:00:08.953Z,99.90
2018-12-30T21:02:38.758Z,99.90
2018-12-30T21:05:08.561Z,99.90
2018-12-30T21:07:38.373Z,99.90
2018-12-30T21:10:08.284Z,99.90
2018-12-30T21:12:38.022Z,99.90
2018-12-30T21:15:07.828Z,99.90
2018-12-30T21:17:37.633Z,99.90
2018-12-30T21:20:07.475Z,99.90
2018-12-30T21:22:37.265Z,99.90
2018-12-30T21:25:08.069Z,99.90
2018-12-30T21:27:37.865Z,99.90
2018-12-30T21:30:08.817Z,99.90
2018-12-30T21:32:38.617Z,99.90
2018-12-30T21:35:08.429Z,99.90
2018-12-30T21:37:38.157Z,99.90
2018-12-30T21:40:07.968Z,99.90
2018-12-30T21:42:43.711Z,99.90
2018-12-30T21:45:10.730Z,99.90
2018-12-30T21:47:40.542Z,99.90
2018-12-30T21:50:11.872Z,99.90
2018-12-30T21:52:41.601Z,99.90
2018-12-30T21:55:11.401Z,99.90
2018-12-30T21:57:41.129Z,99.90
2018-12-30T22:00:10.939Z,99.90
2018-12-30T22:02:40.666Z,99.90
2018-12-30T22:05:10.465Z,99.90
2018-12-30T22:07:41.827Z,99.90
2018-12-30T22:10:17.275Z,99.90
2018-12-30T22:12:43.053Z,99.90
2018-12-30T22:15:12.791Z,99.90
2018-12-30T22:17:42.691Z,99.90
2018-12-30T22:20:12.557Z,99.90
2018-12-30T22:22:43.279Z,99.90
2018-12-30T22:25:14.366Z,99.90
2018-12-30T22:27:44.223Z,99.90
2018-12-30T22:30:14.033Z,99.90
2018-12-30T22:32:43.763Z,99.90
2018-12-30T22:35:13.557Z,99.90
2018-12-30T22:37:43.286Z,99.90
2018-12-30T22:40:13.094Z,99.90
2018-12-30T22:42:42.822Z,99.90
2018-12-30T22:45:14.171Z,99.90
2018-12-30T22:47:43.897Z,99.90
2018-12-30T22:50:13.733Z,99.90
2018-12-30T22:52:43.530Z,99.90
2018-12-30T22:55:13.257Z,99.90
2018-12-30T22:57:43.054Z,99.90
2018-12-30T23:00:14.349Z,99.90
2018-12-30T23:02:44.154Z,99.90
2018-12-30T23:05:14.379Z,99.90
2018-12-30T23:07:44.181Z,99.90
2018-12-30T23:10:14.039Z,99.90
2018-12-30T23:12:43.945Z,99.90
2018-12-30T23:15:13.663Z,99.90
2018-12-30T23:17:43.466Z,99.90
2018-12-30T23:20:13.282Z,99.90
2018-12-30T23:22:43.176Z,99.90
2018-12-30T23:25:13.069Z,99.90
2018-12-30T23:27:42.818Z,99.90
2018-12-30T23:30:12.609Z,99.90
2018-12-30T23:32:42.334Z,99.90
2018-12-30T23:35:12.133Z,99.90
2018-12-30T23:37:41.862Z,99.90
2018-12-30T23:40:11.660Z,99.90
2018-12-30T23:42:41.459Z,99.90
2018-12-30T23:45:11.183Z,99.90
2018-12-30T23:47:40.969Z,99.90
2018-12-30T23:50:10.770Z,99.90
2018-12-30T23:52:40.596Z,99.90
2018-12-30T23:55:10.401Z,99.90
2018-12-30T23:57:40.200Z,99.90
